Time;durP1;ratioP1;P1;durP2;ratioP2;P2;SDS_P1;SDS_P2;PMS_P1;PMS_P2;Temp;Humidity;BMP_temperature;BMP_pressure;BME280_temperature;BME280_humidity;BME280_pressure;Samples;Min_cycle;Max_cycle;Signal;HPM_P1;HPM_P2
2024/01/11 00:01:18;;;;;;;17.00;10.90;;;;;;;-6.13;100.00;98818.81;1224074;75;2922889;-65
2024/01/11 00:03:50;;;;;;;15.15;10.35;;;;;;;-6.10;100.00;98812.03;1224368;75;2915200;-65
2024/01/11 00:06:24;;;;;;;14.10;10.00;;;;;;;-6.16;100.00;98816.03;1223842;75;2917494;-65
2024/01/11 00:08:56;;;;;;;16.30;10.15;;;;;;;-6.22;100.00;98812.84;1223740;75;2922093;-63
2024/01/11 00:11:29;;;;;;;19.00;12.50;;;;;;;-6.23;100.00;98814.72;1224032;75;2919659;-65
2024/01/11 00:14:06;;;;;;;18.30;11.75;;;;;;;-6.21;100.00;98823.13;1223503;75;2916315;-66
2024/01/11 00:16:39;;;;;;;16.75;11.50;;;;;;;-6.23;100.00;98819.25;1224153;75;2922661;-61
2024/01/11 00:19:12;;;;;;;16.20;10.35;;;;;;;-6.18;100.00;98811.06;1224871;75;2921767;-65
2024/01/11 00:21:45;;;;;;;17.55;11.05;;;;;;;-6.27;100.00;98810.41;1224184;75;2924027;-63
2024/01/11 00:24:18;;;;;;;17.05;11.05;;;;;;;-6.29;100.00;98817.94;1224074;75;2930831;-63
2024/01/11 00:26:50;;;;;;;17.50;11.10;;;;;;;-6.23;100.00;98816.59;1224725;75;2919095;-62
2024/01/11 00:29:26;;;;;;;18.80;11.65;;;;;;;-6.23;100.00;98814.72;1224374;75;2940335;-64
2024/01/11 00:31:59;;;;;;;17.35;10.95;;;;;;;-6.22;100.00;98810.94;1224134;75;2923981;-65
2024/01/11 00:34:31;;;;;;;15.85;9.80;;;;;;;-6.23;100.00;98804.06;1224118;75;2935348;-66
2024/01/11 00:37:04;;;;;;;16.55;10.25;;;;;;;-6.28;100.00;98800.84;1222752;75;2922646;-62
2024/01/11 00:39:37;;;;;;;18.10;11.55;;;;;;;-6.44;100.00;98800.75;1222709;75;2927871;-62
2024/01/11 00:42:10;;;;;;;20.40;13.20;;;;;;;-6.35;100.00;98797.94;1218881;75;3210662;-65
2024/01/11 00:44:46;;;;;;;17.65;11.35;;;;;;;-6.32;100.00;98798.06;1223928;75;2918565;-64
2024/01/11 00:47:19;;;;;;;17.00;12.05;;;;;;;-6.34;100.00;98805.63;1223704;75;2927852;-65
2024/01/11 00:49:52;;;;;;;15.85;10.35;;;;;;;-6.36;100.00;98797.19;1223877;75;2919713;-64
2024/01/11 00:52:24;;;;;;;19.05;12.25;;;;;;;-6.56;100.00;98800.75;1224214;75;2915640;-64
2024/01/11 00:54:57;;;;;;;23.95;15.20;;;;;;;-6.55;100.00;98808.41;1224107;75;2921317;-65
2024/01/11 00:57:30;;;;;;;27.20;17.00;;;;;;;-6.63;100.00;98801.31;1224028;75;2923063;-65
2024/01/11 01:00:06;;;;;;;29.40;17.80;;;;;;;-6.63;100.00;98809.31;1223183;75;2933357;-63
2024/01/11 01:02:39;;;;;;;27.00;17.05;;;;;;;-6.68;100.00;98814.84;1224386;75;2921858;-63
2024/01/11 01:05:12;;;;;;;24.20;16.35;;;;;;;-6.68;100.00;98809.53;1223959;75;2920431;-66
2024/01/11 01:07:45;;;;;;;27.10;16.75;;;;;;;-6.70;100.00;98804.53;1223935;75;2922698;-65
2024/01/11 01:10:18;;;;;;;27.10;17.00;;;;;;;-6.69;100.00;98815.94;1221545;75;3003357;-63
2024/01/11 01:12:51;;;;;;;31.10;18.45;;;;;;;-6.61;100.00;98806.28;1223248;75;2918308;-60
2024/01/11 01:15:27;;;;;;;24.45;15.80;;;;;;;-6.58;100.00;98816.28;1224128;75;2918797;-65
2024/01/11 01:17:59;;;;;;;22.30;15.00;;;;;;;-6.62;100.00;98818.81;1224047;75;2919495;-66
2024/01/11 01:20:33;;;;;;;23.75;14.10;;;;;;;-6.62;100.00;98812.72;1223989;75;2921123;-64
2024/01/11 01:23:06;;;;;;;21.40;13.50;;;;;;;-6.67;100.00;98811.06;1223454;75;2918971;-63
2024/01/11 01:25:39;;;;;;;20.45;13.45;;;;;;;-6.70;100.00;98809.06;1223843;75;2917047;-64
2024/01/11 01:28:12;;;;;;;23.15;14.80;;;;;;;-6.71;100.00;98815.50;1223842;75;2923454;-63
2024/01/11 01:30:47;;;;;;;21.75;13.60;;;;;;;-6.73;100.00;98812.41;1223671;75;2939123;-65
2024/01/11 01:33:20;;;;;;;17.55;11.85;;;;;;;-6.66;100.00;98813.41;1223764;75;2925561;-65
2024/01/11 01:35:53;;;;;;;17.55;11.35;;;;;;;-6.67;100.00;98811.84;1223617;75;2922798;-67
2024/01/11 01:38:26;;;;;;;18.10;12.75;;;;;;;-6.71;100.00;98810.16;1223019;75;2936006;-63
2024/01/11 01:40:59;;;;;;;16.75;12.85;;;;;;;-6.67;100.00;98803.84;1225024;75;2922424;-65
2024/01/11 01:43:32;;;;;;;19.85;12.70;;;;;;;-6.70;100.00;98803.75;1224141;75;2924785;-66
2024/01/11 01:46:09;;;;;;;22.95;14.50;;;;;;;-6.89;100.00;98801.63;1224148;75;2920917;-67
2024/01/11 01:48:42;;;;;;;25.80;17.20;;;;;;;-6.95;100.00;98795.75;1224039;75;2922669;-63
2024/01/11 01:51:15;;;;;;;25.85;17.20;;;;;;;-6.82;100.00;98798.41;1224279;75;2924163;-62
2024/01/11 01:53:48;;;;;;;24.95;15.40;;;;;;;-6.98;100.00;98795.63;1224227;75;2938673;-67
2024/01/11 01:56:22;;;;;;;21.10;14.45;;;;;;;-6.80;100.00;98798.88;1223941;75;2921458;-64
2024/01/11 01:58:57;;;;;;;19.40;12.90;;;;;;;-6.82;100.00;98791.22;1223449;75;2920799;-66
2024/01/11 02:01:33;;;;;;;16.60;12.00;;;;;;;-6.80;100.00;98796.22;1223718;75;2934271;-66
2024/01/11 02:04:06;;;;;;;18.05;11.85;;;;;;;-6.93;100.00;98787.41;1223737;75;2923130;-63
2024/01/11 02:06:39;;;;;;;18.35;12.05;;;;;;;-6.98;100.00;98783.09;1223733;75;2925090;-63
2024/01/11 02:09:14;;;;;;;22.60;13.55;;;;;;;-7.17;100.00;98788.16;1224533;67;2920705;-62
2024/01/11 02:11:48;;;;;;;23.05;13.60;;;;;;;-6.97;100.00;98781.22;1224172;75;2925379;-63
2024/01/11 02:14:22;;;;;;;19.80;12.30;;;;;;;-7.01;100.00;98780.31;1225330;75;2916487;-65
2024/01/11 02:16:57;;;;;;;24.30;14.75;;;;;;;-7.09;100.00;98776.66;1223617;75;2919493;-64
2024/01/11 02:19:30;;;;;;;20.30;13.10;;;;;;;-7.11;100.00;98765.56;1224875;67;2926518;-65
2024/01/11 02:22:11;;;;;;;19.10;12.90;;;;;;;-7.01;100.00;98778.44;1224997;75;2919644;-61
2024/01/11 02:24:46;;;;;;;18.60;12.00;;;;;;;-7.02;100.00;98776.88;1224332;75;2925956;-66
2024/01/11 02:27:19;;;;;;;17.55;11.50;;;;;;;-6.99;100.00;98775.44;1223824;75;2923547;-67
2024/01/11 02:29:52;;;;;;;16.70;10.55;;;;;;;-7.05;100.00;98780.19;1224247;75;2933151;-64
2024/01/11 02:32:25;;;;;;;15.40;10.15;;;;;;;-7.07;100.00;98774.41;1225044;75;2916198;-65
2024/01/11 02:34:58;;;;;;;14.75;9.20;;;;;;;-7.02;100.00;98778.75;1223860;75;2920448;-62
2024/01/11 02:37:31;;;;;;;16.75;10.15;;;;;;;-7.02;100.00;98773.44;1224649;75;2922240;-65
2024/01/11 02:40:07;;;;;;;17.90;12.45;;;;;;;-7.01;100.00;98773.09;1223829;75;2934479;-65
2024/01/11 02:42:40;;;;;;;17.15;11.35;;;;;;;-7.08;100.00;98768.31;1224137;75;2915430;-66
2024/01/11 02:45:15;;;;;;;20.05;12.15;;;;;;;-7.23;100.00;98774.28;1223780;75;2917072;-66
2024/01/11 02:47:48;;;;;;;21.60;13.85;;;;;;;-7.31;100.00;98767.97;1223069;75;2925379;-63
2024/01/11 02:50:21;;;;;;;22.70;15.25;;;;;;;-7.26;100.00;98766.19;1224468;75;2918125;-63
2024/01/11 02:52:54;;;;;;;21.10;14.90;;;;;;;-7.23;100.00;98766.31;1223727;75;2922604;-62
2024/01/11 02:55:29;;;;;;;19.95;13.05;;;;;;;-7.22;100.00;98759.09;1223743;75;2920117;-64
2024/01/11 02:58:02;;;;;;;18.80;12.65;;;;;;;-7.24;100.00;98753.34;1223728;75;2923729;-65
2024/01/11 03:00:35;;;;;;;21.50;13.60;;;;;;;-7.22;100.00;98761.75;1224224;75;2920870;-67
2024/01/11 03:03:09;;;;;;;18.75;12.40;;;;;;;-7.21;100.00;98755.34;1224148;75;2929496;-65
2024/01/11 03:05:41;;;;;;;18.80;12.70;;;;;;;-7.31;100.00;98754.66;1224144;75;2917863;-64
2024/01/11 03:08:14;;;;;;;16.70;10.65;;;;;;;-7.27;100.00;98754.78;1223095;75;2920239;-65
2024/01/11 03:10:50;;;;;;;17.95;11.60;;;;;;;-7.22;100.00;98759.09;1224643;75;2927829;-65
2024/01/11 03:13:23;;;;;;;17.80;12.15;;;;;;;-7.28;100.00;98751.34;1223751;75;2918048;-64
2024/01/11 03:15:56;;;;;;;16.20;10.30;;;;;;;-7.28;100.00;98750.56;1223586;75;2935221;-67
2024/01/11 03:18:31;;;;;;;16.95;10.50;;;;;;;-7.37;100.00;98747.22;1224213;75;2923037;-66
2024/01/11 03:21:04;;;;;;;20.30;13.10;;;;;;;-7.37;100.00;98747.22;1224460;75;2921507;-62
2024/01/11 03:23:36;;;;;;;23.45;14.95;;;;;;;-7.40;100.00;98739.91;1224530;75;2920702;-63
2024/01/11 03:26:18;;;;;;;19.70;12.80;;;;;;;-7.29;100.00;98749.78;1224339;75;2923077;-67
2024/01/11 03:28:50;;;;;;;19.85;12.40;;;;;;;-7.25;100.00;98743.81;1225293;75;2917102;-66
2024/01/11 03:31:23;;;;;;;18.20;10.85;;;;;;;-7.28;100.00;98740.69;1224349;75;2918523;-61
2024/01/11 03:33:56;;;;;;;16.05;10.05;;;;;;;-7.36;100.00;98740.78;1223140;75;2920672;-65
2024/01/11 03:36:29;;;;;;;16.40;11.15;;;;;;;-7.35;100.00;98737.03;1224854;75;2927916;-64
2024/01/11 03:39:02;;;;;;;14.70;9.10;;;;;;;-7.36;100.00;98727.47;1220521;75;3109512;-66
2024/01/11 03:41:37;;;;;;;15.20;9.90;;;;;;;-7.40;100.00;98735.34;1224044;75;2930900;-65
2024/01/11 03:44:10;;;;;;;14.45;9.10;;;;;;;-7.42;100.00;98716.28;1224572;75;2917875;-63
2024/01/11 03:46:43;;;;;;;15.25;9.45;;;;;;;-7.33;100.00;98724.19;1223130;75;2945042;-63
2024/01/11 03:49:16;;;;;;;14.10;9.85;;;;;;;-7.33;100.00;98721.53;1222918;75;2936897;-64
2024/01/11 03:51:48;;;;;;;14.60;9.15;;;;;;;-7.35;100.00;98715.75;1224823;75;2921709;-65
2024/01/11 03:54:21;;;;;;;13.60;9.25;;;;;;;-7.36;100.00;98717.66;1224036;75;2920331;-66
2024/01/11 03:56:57;;;;;;;18.50;10.60;;;;;;;-7.32;100.00;98717.75;1223110;75;2926780;-64
2024/01/11 03:59:29;;;;;;;16.75;10.75;;;;;;;-7.43;100.00;98714.75;1222549;75;2923204;-64
2024/01/11 04:02:02;;;;;;;16.90;10.75;;;;;;;-7.39;100.00;98710.31;1224002;75;2917676;-63
2024/01/11 04:04:35;;;;;;;16.15;10.80;;;;;;;-7.37;100.00;98716.06;1224216;75;2920917;-65
2024/01/11 04:07:08;;;;;;;17.70;10.25;;;;;;;-7.43;100.00;98713.94;1224089;75;2929088;-63
2024/01/11 04:09:42;;;;;;;17.15;10.75;;;;;;;-7.64;100.00;98714.81;1224109;75;2921392;-67
2024/01/11 04:12:17;;;;;;;23.55;13.65;;;;;;;-7.63;100.00;98710.25;1224277;75;2924047;-66
2024/01/11 04:14:50;;;;;;;22.35;12.60;;;;;;;-7.59;100.00;98711.16;1224124;75;2919209;-65
2024/01/11 04:17:23;;;;;;;21.60;13.05;;;;;;;-7.66;100.00;98705.59;1223619;75;2921999;-64
2024/01/11 04:19:55;;;;;;;18.70;11.55;;;;;;;-7.54;100.00;98710.94;1223457;75;2936387;-64
2024/01/11 04:22:29;;;;;;;18.80;11.85;;;;;;;-7.52;100.00;98698.88;1224842;75;2918342;-63
2024/01/11 04:25:02;;;;;;;17.40;10.40;;;;;;;-7.53;100.00;98696.53;1224690;75;2918639;-65
2024/01/11 04:27:37;;;;;;;18.65;10.40;;;;;;;-7.56;100.00;98695.31;1223255;75;2923032;-64
2024/01/11 04:30:11;;;;;;;20.00;11.20;;;;;;;-7.63;100.00;98694.31;1224436;75;2922590;-64
2024/01/11 04:32:44;;;;;;;16.40;11.20;;;;;;;-7.53;100.00;98693.88;1224233;75;2922170;-61
2024/01/11 04:35:17;;;;;;;18.10;11.20;;;;;;;-7.59;100.00;98695.97;1223284;75;2922292;-66
2024/01/11 04:37:50;;;;;;;27.75;16.65;;;;;;;-7.75;100.00;98690.50;1223611;75;2921377;-66
2024/01/11 04:40:23;;;;;;;34.60;18.90;;;;;;;-7.79;100.00;98680.84;1223302;75;2925211;-63
2024/01/11 04:42:59;;;;;;;35.85;20.75;;;;;;;-7.67;100.00;98678.25;1223671;75;2921058;-64
2024/01/11 04:45:31;;;;;;;37.15;20.30;;;;;;;-7.72;100.00;98679.22;1224501;75;2913300;-67
2024/01/11 04:48:04;;;;;;;32.30;19.85;;;;;;;-7.73;100.00;98685.63;1224702;75;2917811;-62
2024/01/11 04:50:37;;;;;;;31.90;18.45;;;;;;;-7.73;100.00;98688.28;1224697;75;2923595;-66
2024/01/11 04:53:10;;;;;;;27.35;17.05;;;;;;;-7.67;100.00;98680.91;1225270;75;2933147;-66
2024/01/11 04:55:43;;;;;;;24.60;14.75;;;;;;;-7.71;100.00;98687.97;1224941;75;2924422;-65
2024/01/11 04:58:18;;;;;;;20.80;14.35;;;;;;;-7.73;100.00;98687.53;1223052;75;2923809;-65
2024/01/11 05:00:52;;;;;;;19.95;12.95;;;;;;;-7.69;100.00;98685.78;1223958;75;2926323;-65
2024/01/11 05:03:25;;;;;;;23.35;12.50;;;;;;;-7.74;100.00;98691.31;1224636;75;2880267;-63
2024/01/11 05:05:58;;;;;;;16.85;11.25;;;;;;;-7.69;100.00;98677.03;1225384;75;2921175;-65
2024/01/11 05:08:31;;;;;;;15.15;10.40;;;;;;;-7.72;100.00;98673.91;1224665;75;2928424;-65
2024/01/11 05:11:04;;;;;;;15.90;11.20;;;;;;;-7.71;100.00;98670.16;1224152;75;2922081;-65
2024/01/11 05:13:39;;;;;;;17.40;10.80;;;;;;;-7.64;100.00;98666.19;1224320;75;2923032;-64
2024/01/11 05:16:23;;;;;;;18.65;10.95;;;;;;;-7.70;100.00;98678.88;1224434;75;2926268;-65
2024/01/11 05:18:57;;;;;;;16.35;10.85;;;;;;;-7.70;100.00;98673.56;1223006;75;2933498;-63
2024/01/11 05:21:30;;;;;;;14.05;9.60;;;;;;;-7.66;100.00;98679.03;1224070;75;2919149;-66
2024/01/11 05:24:03;;;;;;;16.45;10.75;;;;;;;-7.73;100.00;98676.91;1223253;75;2920207;-65
2024/01/11 05:26:36;;;;;;;13.70;9.30;;;;;;;-7.73;100.00;98675.00;1224082;75;2923392;-62
2024/01/11 05:29:12;;;;;;;14.60;9.80;;;;;;;-7.69;100.00;98667.16;1224965;75;2925077;-65
2024/01/11 05:31:45;;;;;;;15.25;9.85;;;;;;;-7.71;100.00;98659.50;1223990;75;2937471;-66
2024/01/11 05:34:18;;;;;;;16.65;10.15;;;;;;;-7.78;100.00;98659.28;1224843;75;2927897;-65
2024/01/11 05:36:50;;;;;;;17.15;10.55;;;;;;;-7.82;100.00;98662.91;1225364;75;2919108;-66
2024/01/11 05:39:23;;;;;;;14.60;9.35;;;;;;;-7.79;100.00;98675.53;1224014;75;2918259;-67
2024/01/11 05:41:56;;;;;;;14.30;9.45;;;;;;;-7.82;100.00;98660.25;1224035;75;2923924;-64
2024/01/11 05:44:32;;;;;;;13.60;9.00;;;;;;;-7.86;100.00;98665.47;1225136;75;2921725;-63
2024/01/11 05:47:05;;;;;;;13.35;8.65;;;;;;;-7.86;100.00;98662.03;1222863;75;2924190;-66
2024/01/11 05:49:38;;;;;;;13.75;9.25;;;;;;;-7.89;100.00;98666.09;1221828;75;2932181;-65
2024/01/11 05:52:11;;;;;;;12.85;9.05;;;;;;;-7.88;100.00;98667.66;1224430;75;2924440;-64
2024/01/11 05:54:43;;;;;;;15.80;9.60;;;;;;;-7.92;100.00;98653.47;1223128;75;2922803;-64
2024/01/11 05:57:16;;;;;;;14.10;9.30;;;;;;;-7.93;100.00;98663.34;1222476;75;2935472;-63
2024/01/11 05:59:52;;;;;;;16.65;9.60;;;;;;;-8.00;100.00;98665.75;1223973;75;2923368;-65
2024/01/11 06:02:25;;;;;;;14.05;10.05;;;;;;;-7.98;100.00;98670.75;1223557;75;2924798;-63
2024/01/11 06:04:58;;;;;;;14.20;9.50;;;;;;;-7.95;100.00;98670.09;1222126;75;2940699;-64
2024/01/11 06:07:31;;;;;;;15.10;10.20;;;;;;;-7.95;100.00;98670.84;1224232;75;2920174;-63
2024/01/11 06:10:05;;;;;;;14.85;9.10;;;;;;;-8.05;100.00;98676.59;1223608;75;2955543;-63
2024/01/11 06:12:38;;;;;;;13.60;10.10;;;;;;;-8.18;100.00;98678.44;1223703;75;2922524;-59
2024/01/11 06:15:14;;;;;;;19.30;12.00;;;;;;;-8.17;100.00;98671.22;1223403;75;2932116;-65
2024/01/11 06:17:47;;;;;;;19.85;12.05;;;;;;;-8.03;100.00;98671.72;1222635;75;2922501;-63
2024/01/11 06:20:20;;;;;;;18.80;11.95;;;;;;;-8.15;100.00;98672.44;1223684;75;2930648;-60
2024/01/11 06:22:53;;;;;;;21.75;13.50;;;;;;;-8.21;100.00;98673.75;1222888;75;2924596;-65
2024/01/11 06:25:28;;;;;;;19.05;12.40;;;;;;;-8.18;100.00;98667.81;1222393;75;2925339;-63
2024/01/11 06:28:00;;;;;;;19.30;12.65;;;;;;;-8.10;100.00;98671.47;1222799;75;2928698;-64
2024/01/11 06:30:36;;;;;;;22.35;12.45;;;;;;;-8.19;100.00;98663.56;1223009;75;2925341;-67
2024/01/11 06:33:09;;;;;;;22.70;14.35;;;;;;;-8.22;100.00;98660.81;1224779;75;2922412;-64
2024/01/11 06:35:42;;;;;;;23.65;14.30;;;;;;;-8.11;100.00;98655.84;1224065;75;2922612;-65
2024/01/11 06:38:14;;;;;;;24.70;15.15;;;;;;;-8.18;100.00;98651.06;1222162;75;2935142;-63
2024/01/11 06:40:47;;;;;;;22.65;13.35;;;;;;;-8.16;100.00;98665.56;1223367;75;2925649;-65
2024/01/11 06:43:20;;;;;;;24.60;13.95;;;;;;;-8.09;100.00;98659.72;1223862;75;2924402;-63
2024/01/11 06:45:56;;;;;;;21.35;13.10;;;;;;;-8.02;100.00;98656.56;1222897;75;2929559;-64
2024/01/11 06:48:29;;;;;;;21.75;12.10;;;;;;;-8.00;100.00;98657.78;1222129;75;2927219;-64
2024/01/11 06:51:01;;;;;;;22.35;13.70;;;;;;;-7.94;100.00;98656.47;1223819;75;2929117;-64
2024/01/11 06:53:34;;;;;;;24.95;15.00;;;;;;;-8.08;100.00;98655.19;1224148;75;2928902;-65
2024/01/11 06:56:17;;;;;;;24.40;14.45;;;;;;;-8.00;100.00;98664.97;1223530;75;2916091;-65
2024/01/11 06:58:50;;;;;;;23.05;13.85;;;;;;;-8.03;100.00;98652.31;1222674;75;2923807;-64
2024/01/11 07:01:26;;;;;;;19.50;11.80;;;;;;;-7.93;100.00;98649.28;1223758;75;2919783;-62
2024/01/11 07:03:58;;;;;;;17.50;10.75;;;;;;;-7.88;100.00;98661.59;1224288;75;2922835;-65
2024/01/11 07:06:31;;;;;;;19.05;10.65;;;;;;;-7.88;100.00;98653.63;1222846;75;2920934;-63
2024/01/11 07:09:05;;;;;;;16.15;10.70;;;;;;;-7.82;100.00;98655.72;1224279;75;2921392;-64
2024/01/11 07:11:38;;;;;;;16.95;10.40;;;;;;;-7.90;100.00;98650.50;1223499;75;2920202;-66
2024/01/11 07:14:11;;;;;;;18.75;11.85;;;;;;;-7.80;100.00;98652.72;1223194;75;2922622;-65
2024/01/11 07:16:49;;;;;;;18.95;11.80;;;;;;;-7.84;100.00;98642.00;1223838;75;2921918;-64
2024/01/11 07:19:22;;;;;;;19.60;11.90;;;;;;;-7.85;100.00;98643.09;1222166;75;2929489;-67
2024/01/11 07:21:55;;;;;;;21.70;13.45;;;;;;;-7.74;100.00;98646.13;1222989;75;2929172;-65
2024/01/11 07:24:29;;;;;;;20.50;12.85;;;;;;;-7.56;100.00;98642.13;1222618;75;2933596;-63
2024/01/11 07:27:02;;;;;;;16.55;11.15;;;;;;;-7.46;100.00;98640.91;1223915;75;2922568;-66
2024/01/11 07:29:35;;;;;;;16.35;11.05;;;;;;;-7.39;100.00;98648.34;1223372;75;2937291;-65
2024/01/11 07:32:11;;;;;;;16.05;10.60;;;;;;;-7.34;100.00;98646.25;1222122;75;2924592;-64
2024/01/11 07:34:46;;;;;;;17.20;11.10;;;;;;;-7.12;100.00;98636.28;1222714;75;2926704;-61
2024/01/11 07:37:18;;;;;;;17.75;11.70;;;;;;;-7.02;100.00;98648.34;1223707;75;2924467;-67
2024/01/11 07:39:51;;;;;;;21.65;14.00;;;;;;;-7.00;100.00;98649.56;1222948;75;2922518;-63
2024/01/11 07:42:24;;;;;;;21.90;12.60;;;;;;;-6.83;100.00;98650.44;1223189;75;2946678;-65
2024/01/11 07:44:57;;;;;;;21.50;12.45;;;;;;;-6.74;100.00;98651.84;1222379;75;2938560;-66
2024/01/11 07:47:36;;;;;;;19.55;12.20;;;;;;;-6.57;100.00;98655.38;1224207;75;2932058;-63
2024/01/11 07:50:12;;;;;;;16.75;10.60;;;;;;;-6.47;100.00;98650.38;1223971;75;2936364;-64
2024/01/11 07:52:45;;;;;;;23.30;15.05;;;;;;;-6.39;100.00;98655.91;1223712;75;2926245;-64
2024/01/11 07:55:18;;;;;;;28.00;17.05;;;;;;;-5.55;100.00;98650.47;1223049;75;2921700;-64
2024/01/11 07:57:51;;;;;;;27.50;17.60;;;;;;;-4.15;100.00;98648.16;1224025;75;2943145;-65
2024/01/11 08:00:24;;;;;;;28.85;18.60;;;;;;;-3.34;100.00;98640.03;1224267;75;2920960;-63
2024/01/11 08:03:00;;;;;;;23.10;15.55;;;;;;;-2.34;98.39;98629.91;1223900;75;2920251;-66
2024/01/11 08:05:33;;;;;;;25.40;17.25;;;;;;;-2.57;91.74;98630.78;1223491;75;2919553;-64
2024/01/11 08:08:06;;;;;;;31.15;21.60;;;;;;;-2.39;88.67;98635.59;1223006;75;2922303;-66
2024/01/11 08:10:39;;;;;;;24.95;18.95;;;;;;;-2.20;86.72;98634.69;1222757;75;2939390;-63
2024/01/11 08:13:13;;;;;;;34.10;24.15;;;;;;;-2.87;88.92;98640.72;1222034;75;2931989;-65
2024/01/11 08:15:45;;;;;;;36.40;24.40;;;;;;;-3.02;89.03;98634.38;1222717;75;2924554;-65
2024/01/11 08:18:24;;;;;;;36.90;25.05;;;;;;;-2.94;90.42;98636.03;1222988;75;2947301;-64
2024/01/11 08:20:56;;;;;;;31.50;21.50;;;;;;;-2.91;90.13;98638.00;1223208;75;2931586;-64
2024/01/11 08:23:29;;;;;;;26.00;19.15;;;;;;;-2.94;90.98;98627.22;1222674;75;2925218;-65
2024/01/11 08:26:02;;;;;;;24.90;17.90;;;;;;;-2.46;89.09;98630.91;1223296;75;2920673;-65
2024/01/11 08:28:36;;;;;;;22.90;15.75;;;;;;;-2.24;86.79;98631.16;1223041;75;2944132;-66
2024/01/11 08:31:08;;;;;;;19.75;14.80;;;;;;;-2.55;87.60;98629.66;1223245;75;2933907;-64
2024/01/11 08:33:44;;;;;;;20.55;13.70;;;;;;;-2.48;87.98;98630.50;1222314;75;2923301;-66
2024/01/11 08:36:17;;;;;;;21.35;13.65;;;;;;;-2.38;88.68;98616.47;1221268;75;2933733;-62
2024/01/11 08:38:50;;;;;;;20.15;13.65;;;;;;;-2.37;88.31;98614.56;1223697;75;2920364;-65
2024/01/11 08:41:23;;;;;;;24.40;15.10;;;;;;;-2.41;90.66;98611.81;1223938;75;2921551;-64
2024/01/11 08:43:55;;;;;;;22.90;15.40;;;;;;;-2.60;89.78;98618.13;1220649;75;2925051;-64
2024/01/11 08:46:30;;;;;;;27.85;19.05;;;;;;;-2.07;88.86;98617.19;1199116;75;4814338;-60
2024/01/11 08:49:15;;;;;;;24.60;16.24;;;;;;;-1.71;86.02;98628.28;1197500;75;5824690;-60
2024/01/11 08:51:48;;;;;;;23.75;16.40;;;;;;;-1.82;86.29;98630.88;1223522;75;2919771;-64
2024/01/11 08:54:21;;;;;;;25.75;17.65;;;;;;;-1.88;86.00;98623.50;1221602;75;2919471;-65
2024/01/11 08:56:54;;;;;;;35.00;21.90;;;;;;;-2.24;88.18;98625.81;1223573;75;2946445;-66
2024/01/11 08:59:27;;;;;;;35.10;21.00;;;;;;;-2.19;86.43;98628.94;1220667;75;3011030;-64
2024/01/11 09:02:00;;;;;;;29.20;19.75;;;;;;;-1.96;86.86;98631.47;1223537;75;2921464;-65
2024/01/11 09:04:35;;;;;;;30.50;21.45;;;;;;;-1.56;87.99;98640.69;1223128;75;2923099;-63
2024/01/11 09:07:08;;;;;;;27.65;19.30;;;;;;;-0.63;83.23;98634.44;1223499;75;2926029;-65
2024/01/11 09:09:44;;;;;;;23.15;16.75;;;;;;;-0.27;80.53;98627.28;1224532;75;2920699;-62
2024/01/11 09:12:17;;;;;;;28.80;20.55;;;;;;;-0.84;82.19;98622.44;1221476;75;2926821;-64
2024/01/11 09:14:49;;;;;;;42.20;27.85;;;;;;;-1.09;83.55;98627.63;1221565;75;2922148;-64
2024/01/11 09:17:22;;;;;;;45.90;30.30;;;;;;;-1.39;86.69;98606.31;1222629;75;2919107;-63
2024/01/11 09:19:58;;;;;;;38.70;25.40;;;;;;;-0.90;86.85;98608.56;1222345;75;2918738;-66
2024/01/11 09:22:31;;;;;;;36.65;23.90;;;;;;;-0.53;83.27;98601.44;1223142;75;2920757;-66
2024/01/11 09:25:04;;;;;;;34.35;22.95;;;;;;;0.16;79.75;98605.88;1221139;75;2989671;-64
2024/01/11 09:27:37;;;;;;;36.25;23.15;;;;;;;-0.14;77.97;98611.59;1222555;75;2923994;-63
2024/01/11 09:30:09;;;;;;;36.65;21.90;;;;;;;0.78;74.76;98602.06;1223387;75;2916403;-64
2024/01/11 09:32:41;;;;;;;33.25;19.90;;;;;;;1.81;71.43;98603.69;1221734;75;2924949;-64
2024/01/11 09:35:17;;;;;;;34.60;20.75;;;;;;;2.50;69.83;98610.22;1219884;75;2931826;-65
2024/01/11 09:37:50;;;;;;;49.45;30.70;;;;;;;2.74;68.19;98613.13;1221325;75;2936404;-64
2024/01/11 09:40:23;;;;;;;35.75;21.70;;;;;;;3.47;65.32;98608.56;1222088;75;2923729;-66
2024/01/11 09:42:56;;;;;;;32.50;19.80;;;;;;;3.07;65.40;98611.66;1222609;75;2922611;-66
2024/01/11 09:45:29;;;;;;;31.65;19.70;;;;;;;3.64;64.18;98613.00;1222491;75;2927023;-65
2024/01/11 09:48:02;;;;;;;30.40;18.25;;;;;;;4.73;62.11;98596.75;1223296;75;2928185;-66
2024/01/11 09:50:39;;;;;;;29.65;18.45;;;;;;;4.83;60.29;98587.66;1221997;75;2924988;-64
2024/01/11 09:53:12;;;;;;;28.40;18.65;;;;;;;4.46;61.31;98589.41;1222915;75;2923777;-65
2024/01/11 09:55:45;;;;;;;28.80;18.50;;;;;;;5.37;58.22;98573.88;1221353;75;2925044;-63
2024/01/11 09:58:19;;;;;;;28.60;18.75;;;;;;;4.28;59.95;98584.25;1221909;75;2928625;-63
2024/01/11 10:00:53;;;;;;;28.00;18.45;;;;;;;4.78;60.19;98566.44;1222285;75;2929516;-63
2024/01/11 10:03:27;;;;;;;30.10;18.15;;;;;;;5.21;57.10;98558.28;1221473;75;2925871;-64
2024/01/11 10:06:04;;;;;;;24.80;15.85;;;;;;;4.89;59.68;98564.31;1223558;75;2924129;-66
2024/01/11 10:08:37;;;;;;;21.15;15.10;;;;;;;5.65;56.17;98560.91;1222251;75;2924611;-63
2024/01/11 10:11:10;;;;;;;23.30;15.35;;;;;;;6.44;53.84;98562.66;1221684;75;2924898;-62
2024/01/11 10:13:43;;;;;;;25.00;16.00;;;;;;;7.64;54.03;98553.69;1221085;75;2930590;-63
2024/01/11 10:16:17;;;;;;;22.85;13.95;;;;;;;7.71;51.50;98555.44;1220014;75;2925960;-63
2024/01/11 10:18:50;;;;;;;23.30;14.45;;;;;;;8.40;52.10;98552.97;1221975;75;2925762;-62
2024/01/11 10:21:26;;;;;;;21.35;14.40;;;;;;;10.07;47.69;98557.66;1221312;75;2931558;-65
2024/01/11 10:24:04;;;;;;;25.65;15.15;;;;;;;9.53;47.52;98543.28;1223439;75;2930752;-65
2024/01/11 10:26:37;;;;;;;25.85;13.40;;;;;;;9.20;47.93;98543.66;1223099;75;2920916;-66
2024/01/11 10:29:12;;;;;;;18.30;12.00;;;;;;;9.43;46.18;98537.00;1223308;75;2922985;-64
2024/01/11 10:31:45;;;;;;;21.95;12.90;;;;;;;9.24;46.17;98527.16;1222854;75;2928799;-64
2024/01/11 10:34:19;;;;;;;20.90;13.15;;;;;;;8.67;47.38;98513.50;1222856;75;2935148;-63
2024/01/11 10:36:55;;;;;;;19.70;12.70;;;;;;;7.72;48.60;98513.34;1222375;75;2921756;-64
2024/01/11 10:39:30;;;;;;;19.15;12.40;;;;;;;7.05;51.06;98514.88;1222873;75;2930460;-65
2024/01/11 10:42:10;;;;;;;17.70;12.40;;;;;;;7.31;51.82;98509.47;1223341;75;2923275;-64
2024/01/11 10:44:50;;;;;;;18.65;12.60;;;;;;;7.60;50.09;98502.03;1222445;75;2922802;-62
2024/01/11 10:47:25;;;;;;;21.45;13.20;;;;;;;7.82;49.74;98504.88;1223365;75;2923092;-64
2024/01/11 10:50:00;;;;;;;18.05;11.35;;;;;;;7.28;50.12;98496.72;1222891;75;2925832;-65
2024/01/11 10:53:05;;;;;;;17.60;11.65;;;;;;;8.22;48.89;98498.19;1222753;75;2922557;-65
2024/01/11 10:55:40;;;;;;;16.25;11.80;;;;;;;9.42;46.25;98493.72;1222317;75;2923157;-62
2024/01/11 10:58:14;;;;;;;16.55;10.40;;;;;;;10.88;44.47;98487.88;1220567;75;2931491;-64
2024/01/11 11:00:49;;;;;;;14.30;10.00;;;;;;;9.68;45.45;98475.16;1221668;75;2919995;-63
2024/01/11 11:03:26;;;;;;;15.15;9.90;;;;;;;9.88;43.75;98467.31;1221166;83;2920850;-62
2024/01/11 11:05:59;;;;;;;13.35;9.95;;;;;;;10.02;44.28;98460.53;1223353;75;2919559;-64
2024/01/11 11:08:36;;;;;;;12.75;8.50;;;;;;;11.75;41.10;98462.88;1223847;75;2924893;-66
2024/01/11 11:11:09;;;;;;;12.65;8.90;;;;;;;11.59;41.00;98452.25;1223264;75;2918764;-65
2024/01/11 11:13:44;;;;;;;13.95;9.00;;;;;;;12.61;40.51;98447.00;1223731;75;2921264;-64
2024/01/11 11:16:19;;;;;;;13.45;9.35;;;;;;;12.30;41.40;98432.41;1223760;75;2929238;-65
2024/01/11 11:18:55;;;;;;;12.50;9.40;;;;;;;11.61;41.80;98425.88;1224687;75;2922766;-64
2024/01/11 11:21:28;;;;;;;17.90;11.55;;;;;;;12.22;41.69;98420.25;1224439;75;2918412;-65
2024/01/11 11:24:03;;;;;;;15.65;10.65;;;;;;;12.26;40.63;98415.34;1223740;75;2917198;-64
2024/01/11 11:26:38;;;;;;;17.25;12.25;;;;;;;13.25;39.96;98426.38;1223091;75;2925867;-65